sensor_id;sensor_type;location;lat;lon;timestamp;P1;durP1;ratioP1;P2;durP2;ratioP2
3789;SDS011;1910;49.042;9.028;2023-04-25T00:00:53;4.30;;;3.83;;
3789;SDS011;1910;49.042;9.028;2023-04-25T00:03:20;6.90;;;5.30;;
3789;SDS011;1910;49.042;9.028;2023-04-25T00:05:46;5.40;;;4.90;;
3789;SDS011;1910;49.042;9.028;2023-04-25T00:08:12;4.90;;;4.40;;
3789;SDS011;1910;49.042;9.028;2023-04-25T00:10:38;4.93;;;4.43;;
3789;SDS011;1910;49.042;9.028;2023-04-25T00:13:03;5.90;;;4.37;;
3789;SDS011;1910;49.042;9.028;2023-04-25T00:15:29;9.45;;;3.92;;
3789;SDS011;1910;49.042;9.028;2023-04-25T00:17:56;5.37;;;4.10;;
3789;SDS011;1910;49.042;9.028;2023-04-25T00:20:22;6.25;;;4.05;;
3789;SDS011;1910;49.042;9.028;2023-04-25T00:22:48;6.38;;;4.85;;
3789;SDS011;1910;49.042;9.028;2023-04-25T00:25:17;7.00;;;4.32;;
3789;SDS011;1910;49.042;9.028;2023-04-25T00:27:43;8.02;;;5.63;;
3789;SDS011;1910;49.042;9.028;2023-04-25T00:30:09;7.03;;;4.40;;
3789;SDS011;1910;49.042;9.028;2023-04-25T00:32:35;4.70;;;3.10;;
3789;SDS011;1910;49.042;9.028;2023-04-25T00:35:00;6.23;;;3.10;;
3789;SDS011;1910;49.042;9.028;2023-04-25T00:37:26;5.30;;;3.75;;
3789;SDS011;1910;49.042;9.028;2023-04-25T00:39:52;4.57;;;3.58;;
3789;SDS011;1910;49.042;9.028;2023-04-25T00:42:20;3.72;;;3.10;;
3789;SDS011;1910;49.042;9.028;2023-04-25T00:44:46;5.97;;;3.43;;
3789;SDS011;1910;49.042;9.028;2023-04-25T00:47:12;8.38;;;3.45;;
3789;SDS011;1910;49.042;9.028;2023-04-25T00:49:38;6.10;;;3.37;;
3789;SDS011;1910;49.042;9.028;2023-04-25T00:52:04;4.60;;;3.53;;
3789;SDS011;1910;49.042;9.028;2023-04-25T00:54:31;6.35;;;3.45;;
3789;SDS011;1910;49.042;9.028;2023-04-25T00:56:56;6.00;;;3.27;;
3789;SDS011;1910;49.042;9.028;2023-04-25T00:59:22;4.00;;;3.10;;
3789;SDS011;1910;49.042;9.028;2023-04-25T01:01:49;7.43;;;3.42;;
3789;SDS011;1910;49.042;9.028;2023-04-25T01:04:15;3.75;;;3.13;;
3789;SDS011;1910;49.042;9.028;2023-04-25T01:06:40;7.53;;;4.07;;
3789;SDS011;1910;49.042;9.028;2023-04-25T01:09:06;6.20;;;3.10;;
3789;SDS011;1910;49.042;9.028;2023-04-25T01:11:32;7.22;;;3.42;;
3789;SDS011;1910;49.042;9.028;2023-04-25T01:13:58;4.73;;;2.97;;
3789;SDS011;1910;49.042;9.028;2023-04-25T01:16:24;10.50;;;3.70;;
3789;SDS011;1910;49.042;9.028;2023-04-25T01:18:49;4.53;;;2.93;;
3789;SDS011;1910;49.042;9.028;2023-04-25T01:21:16;7.75;;;3.70;;
3789;SDS011;1910;49.042;9.028;2023-04-25T01:23:42;4.47;;;2.90;;
3789;SDS011;1910;49.042;9.028;2023-04-25T01:26:08;4.90;;;3.40;;
3789;SDS011;1910;49.042;9.028;2023-04-25T01:28:36;5.38;;;3.40;;
3789;SDS011;1910;49.042;9.028;2023-04-25T01:31:02;4.45;;;3.30;;
3789;SDS011;1910;49.042;9.028;2023-04-25T01:33:28;9.40;;;5.07;;
3789;SDS011;1910;49.042;9.028;2023-04-25T01:35:54;6.68;;;4.35;;
3789;SDS011;1910;49.042;9.028;2023-04-25T01:38:23;9.27;;;5.07;;
3789;SDS011;1910;49.042;9.028;2023-04-25T01:40:49;6.30;;;3.88;;
3789;SDS011;1910;49.042;9.028;2023-04-25T01:43:16;6.30;;;3.58;;
3789;SDS011;1910;49.042;9.028;2023-04-25T01:45:42;7.50;;;5.13;;
3789;SDS011;1910;49.042;9.028;2023-04-25T01:48:08;5.32;;;3.95;;
3789;SDS011;1910;49.042;9.028;2023-04-25T01:50:35;5.78;;;4.10;;
3789;SDS011;1910;49.042;9.028;2023-04-25T01:53:03;5.28;;;4.25;;
3789;SDS011;1910;49.042;9.028;2023-04-25T01:55:29;8.88;;;3.35;;
3789;SDS011;1910;49.042;9.028;2023-04-25T01:57:55;5.63;;;3.93;;
3789;SDS011;1910;49.042;9.028;2023-04-25T02:00:21;6.40;;;3.40;;
3789;SDS011;1910;49.042;9.028;2023-04-25T02:02:47;4.43;;;3.47;;
3789;SDS011;1910;49.042;9.028;2023-04-25T02:05:15;4.13;;;3.72;;
3789;SDS011;1910;49.042;9.028;2023-04-25T02:07:41;4.18;;;3.33;;
3789;SDS011;1910;49.042;9.028;2023-04-25T02:10:07;3.27;;;2.60;;
3789;SDS011;1910;49.042;9.028;2023-04-25T02:12:35;6.53;;;4.18;;
3789;SDS011;1910;49.042;9.028;2023-04-25T02:15:00;4.63;;;3.17;;
3789;SDS011;1910;49.042;9.028;2023-04-25T02:17:27;10.13;;;4.10;;
3789;SDS011;1910;49.042;9.028;2023-04-25T02:19:53;4.90;;;3.90;;
3789;SDS011;1910;49.042;9.028;2023-04-25T02:22:18;9.83;;;4.57;;
3789;SDS011;1910;49.042;9.028;2023-04-25T02:24:45;6.05;;;3.55;;
3789;SDS011;1910;49.042;9.028;2023-04-25T02:27:11;3.78;;;2.92;;
3789;SDS011;1910;49.042;9.028;2023-04-25T02:29:37;5.67;;;3.30;;
3789;SDS011;1910;49.042;9.028;2023-04-25T02:32:03;3.80;;;2.85;;
3789;SDS011;1910;49.042;9.028;2023-04-25T02:34:29;5.63;;;3.65;;
3789;SDS011;1910;49.042;9.028;2023-04-25T02:36:55;4.10;;;3.07;;
3789;SDS011;1910;49.042;9.028;2023-04-25T02:39:21;4.20;;;3.30;;
3789;SDS011;1910;49.042;9.028;2023-04-25T02:41:47;8.50;;;3.93;;
3789;SDS011;1910;49.042;9.028;2023-04-25T02:44:13;3.87;;;3.17;;
3789;SDS011;1910;49.042;9.028;2023-04-25T02:46:38;3.90;;;2.83;;
3789;SDS011;1910;49.042;9.028;2023-04-25T02:49:04;5.00;;;3.67;;
3789;SDS011;1910;49.042;9.028;2023-04-25T02:51:30;6.33;;;3.73;;
3789;SDS011;1910;49.042;9.028;2023-04-25T02:53:56;5.78;;;3.50;;
3789;SDS011;1910;49.042;9.028;2023-04-25T02:56:22;5.83;;;4.07;;
3789;SDS011;1910;49.042;9.028;2023-04-25T02:58:50;6.32;;;4.22;;
3789;SDS011;1910;49.042;9.028;2023-04-25T03:01:16;9.70;;;3.70;;
3789;SDS011;1910;49.042;9.028;2023-04-25T03:03:42;6.07;;;3.50;;
3789;SDS011;1910;49.042;9.028;2023-04-25T03:06:08;5.60;;;4.00;;
3789;SDS011;1910;49.042;9.028;2023-04-25T03:08:33;5.03;;;3.57;;
3789;SDS011;1910;49.042;9.028;2023-04-25T03:10:59;5.67;;;3.97;;
3789;SDS011;1910;49.042;9.028;2023-04-25T03:13:25;4.60;;;3.30;;
3789;SDS011;1910;49.042;9.028;2023-04-25T03:15:52;5.43;;;3.35;;
3789;SDS011;1910;49.042;9.028;2023-04-25T03:18:18;5.83;;;3.67;;
3789;SDS011;1910;49.042;9.028;2023-04-25T03:20:44;5.47;;;3.47;;
3789;SDS011;1910;49.042;9.028;2023-04-25T03:23:11;7.05;;;3.85;;
3789;SDS011;1910;49.042;9.028;2023-04-25T03:25:37;6.50;;;4.40;;
3789;SDS011;1910;49.042;9.028;2023-04-25T03:28:03;3.03;;;2.70;;
3789;SDS011;1910;49.042;9.028;2023-04-25T03:30:29;6.35;;;4.25;;
3789;SDS011;1910;49.042;9.028;2023-04-25T03:32:55;5.40;;;3.40;;
3789;SDS011;1910;49.042;9.028;2023-04-25T03:35:21;5.20;;;3.63;;
3789;SDS011;1910;49.042;9.028;2023-04-25T03:37:48;5.25;;;3.72;;
3789;SDS011;1910;49.042;9.028;2023-04-25T03:40:14;4.23;;;3.20;;
3789;SDS011;1910;49.042;9.028;2023-04-25T03:42:39;4.03;;;3.60;;
3789;SDS011;1910;49.042;9.028;2023-04-25T03:45:05;6.40;;;3.90;;
3789;SDS011;1910;49.042;9.028;2023-04-25T03:47:31;4.78;;;3.85;;
3789;SDS011;1910;49.042;9.028;2023-04-25T03:49:57;3.87;;;3.27;;
3789;SDS011;1910;49.042;9.028;2023-04-25T03:52:23;6.35;;;4.45;;
3789;SDS011;1910;49.042;9.028;2023-04-25T03:54:49;5.07;;;3.83;;
3789;SDS011;1910;49.042;9.028;2023-04-25T03:57:15;4.37;;;3.30;;
3789;SDS011;1910;49.042;9.028;2023-04-25T03:59:40;4.70;;;3.23;;
3789;SDS011;1910;49.042;9.028;2023-04-25T04:02:06;5.83;;;3.47;;
3789;SDS011;1910;49.042;9.028;2023-04-25T04:04:32;4.80;;;3.67;;
3789;SDS011;1910;49.042;9.028;2023-04-25T04:06:57;5.63;;;3.43;;
3789;SDS011;1910;49.042;9.028;2023-04-25T04:09:23;5.20;;;4.70;;
3789;SDS011;1910;49.042;9.028;2023-04-25T04:11:50;5.65;;;4.03;;
3789;SDS011;1910;49.042;9.028;2023-04-25T04:14:15;6.67;;;4.03;;
3789;SDS011;1910;49.042;9.028;2023-04-25T04:16:41;5.97;;;3.85;;
3789;SDS011;1910;49.042;9.028;2023-04-25T04:19:07;7.70;;;4.73;;
3789;SDS011;1910;49.042;9.028;2023-04-25T04:21:33;6.60;;;4.10;;
3789;SDS011;1910;49.042;9.028;2023-04-25T04:23:59;5.63;;;4.10;;
3789;SDS011;1910;49.042;9.028;2023-04-25T04:26:25;7.20;;;4.47;;
3789;SDS011;1910;49.042;9.028;2023-04-25T04:28:51;6.20;;;4.28;;
3789;SDS011;1910;49.042;9.028;2023-04-25T04:31:19;6.72;;;4.85;;
3789;SDS011;1910;49.042;9.028;2023-04-25T04:33:47;8.23;;;4.03;;
3789;SDS011;1910;49.042;9.028;2023-04-25T04:36:12;8.48;;;5.13;;
3789;SDS011;1910;49.042;9.028;2023-04-25T04:38:38;7.97;;;4.97;;
3789;SDS011;1910;49.042;9.028;2023-04-25T04:41:05;7.18;;;5.20;;
3789;SDS011;1910;49.042;9.028;2023-04-25T04:43:31;6.85;;;5.32;;
3789;SDS011;1910;49.042;9.028;2023-04-25T04:45:58;7.38;;;4.68;;
3789;SDS011;1910;49.042;9.028;2023-04-25T04:48:25;8.35;;;4.90;;
3789;SDS011;1910;49.042;9.028;2023-04-25T04:50:51;7.90;;;5.37;;
3789;SDS011;1910;49.042;9.028;2023-04-25T04:53:16;12.13;;;7.10;;
3789;SDS011;1910;49.042;9.028;2023-04-25T04:55:42;8.93;;;5.20;;
3789;SDS011;1910;49.042;9.028;2023-04-25T04:58:08;9.90;;;5.40;;
3789;SDS011;1910;49.042;9.028;2023-04-25T05:00:34;10.27;;;6.20;;
3789;SDS011;1910;49.042;9.028;2023-04-25T05:03:00;7.33;;;5.67;;
3789;SDS011;1910;49.042;9.028;2023-04-25T05:05:25;6.23;;;5.00;;
3789;SDS011;1910;49.042;9.028;2023-04-25T05:07:51;6.10;;;4.83;;
3789;SDS011;1910;49.042;9.028;2023-04-25T05:10:18;9.50;;;5.70;;
3789;SDS011;1910;49.042;9.028;2023-04-25T05:12:44;9.25;;;6.10;;
3789;SDS011;1910;49.042;9.028;2023-04-25T05:15:10;6.60;;;4.97;;
3789;SDS011;1910;49.042;9.028;2023-04-25T05:17:36;10.93;;;4.70;;
3789;SDS011;1910;49.042;9.028;2023-04-25T05:20:01;10.43;;;5.73;;
3789;SDS011;1910;49.042;9.028;2023-04-25T05:22:28;5.60;;;4.30;;
3789;SDS011;1910;49.042;9.028;2023-04-25T05:24:54;8.07;;;5.17;;
3789;SDS011;1910;49.042;9.028;2023-04-25T05:27:20;6.05;;;4.75;;
3789;SDS011;1910;49.042;9.028;2023-04-25T05:29:46;7.63;;;4.60;;
3789;SDS011;1910;49.042;9.028;2023-04-25T05:32:12;7.95;;;4.85;;
3789;SDS011;1910;49.042;9.028;2023-04-25T05:34:38;7.90;;;4.27;;
3789;SDS011;1910;49.042;9.028;2023-04-25T05:37:06;7.47;;;5.20;;
3789;SDS011;1910;49.042;9.028;2023-04-25T05:39:32;7.95;;;5.13;;
3789;SDS011;1910;49.042;9.028;2023-04-25T05:41:58;8.23;;;5.53;;
3789;SDS011;1910;49.042;9.028;2023-04-25T05:44:24;5.87;;;5.13;;
3789;SDS011;1910;49.042;9.028;2023-04-25T05:46:50;6.47;;;4.85;;
3789;SDS011;1910;49.042;9.028;2023-04-25T05:49:16;5.70;;;4.70;;
3789;SDS011;1910;49.042;9.028;2023-04-25T05:51:41;7.97;;;5.10;;
3789;SDS011;1910;49.042;9.028;2023-04-25T05:54:07;8.40;;;5.25;;
3789;SDS011;1910;49.042;9.028;2023-04-25T05:56:33;9.83;;;6.10;;
3789;SDS011;1910;49.042;9.028;2023-04-25T05:58:59;7.40;;;5.43;;
3789;SDS011;1910;49.042;9.028;2023-04-25T06:01:25;7.20;;;4.67;;
3789;SDS011;1910;49.042;9.028;2023-04-25T06:03:51;7.68;;;5.60;;
3789;SDS011;1910;49.042;9.028;2023-04-25T06:06:17;8.20;;;6.03;;
3789;SDS011;1910;49.042;9.028;2023-04-25T06:08:43;7.60;;;4.40;;
3789;SDS011;1910;49.042;9.028;2023-04-25T06:11:10;9.73;;;5.50;;
3789;SDS011;1910;49.042;9.028;2023-04-25T06:13:35;8.40;;;5.10;;
3789;SDS011;1910;49.042;9.028;2023-04-25T06:16:01;6.40;;;5.50;;
3789;SDS011;1910;49.042;9.028;2023-04-25T06:18:27;6.27;;;4.90;;
3789;SDS011;1910;49.042;9.028;2023-04-25T06:20:53;6.63;;;5.07;;
3789;SDS011;1910;49.042;9.028;2023-04-25T06:23:19;4.87;;;4.17;;
3789;SDS011;1910;49.042;9.028;2023-04-25T06:25:45;7.50;;;4.80;;
3789;SDS011;1910;49.042;9.028;2023-04-25T06:28:11;4.07;;;3.37;;
3789;SDS011;1910;49.042;9.028;2023-04-25T06:30:37;4.90;;;3.90;;
3789;SDS011;1910;49.042;9.028;2023-04-25T06:33:03;4.70;;;4.20;;
3789;SDS011;1910;49.042;9.028;2023-04-25T06:35:29;5.43;;;3.70;;
3789;SDS011;1910;49.042;9.028;2023-04-25T06:37:55;4.70;;;4.23;;
3789;SDS011;1910;49.042;9.028;2023-04-25T06:40:21;8.93;;;4.50;;
3789;SDS011;1910;49.042;9.028;2023-04-25T06:42:47;6.70;;;4.10;;
3789;SDS011;1910;49.042;9.028;2023-04-25T06:45:13;6.17;;;4.60;;
3789;SDS011;1910;49.042;9.028;2023-04-25T06:47:38;5.17;;;4.30;;
3789;SDS011;1910;49.042;9.028;2023-04-25T06:50:04;5.40;;;4.13;;
3789;SDS011;1910;49.042;9.028;2023-04-25T06:52:30;7.53;;;3.97;;
3789;SDS011;1910;49.042;9.028;2023-04-25T06:54:57;7.20;;;4.55;;
3789;SDS011;1910;49.042;9.028;2023-04-25T06:57:22;9.87;;;5.30;;
3789;SDS011;1910;49.042;9.028;2023-04-25T06:59:48;7.10;;;4.40;;
3789;SDS011;1910;49.042;9.028;2023-04-25T07:02:14;7.77;;;4.60;;
3789;SDS011;1910;49.042;9.028;2023-04-25T07:04:40;6.15;;;4.40;;
3789;SDS011;1910;49.042;9.028;2023-04-25T07:07:06;7.50;;;4.60;;
3789;SDS011;1910;49.042;9.028;2023-04-25T07:09:32;7.73;;;4.80;;
3789;SDS011;1910;49.042;9.028;2023-04-25T07:11:59;7.85;;;4.75;;
3789;SDS011;1910;49.042;9.028;2023-04-25T07:14:26;6.18;;;4.85;;
3789;SDS011;1910;49.042;9.028;2023-04-25T07:16:52;11.27;;;4.47;;
3789;SDS011;1910;49.042;9.028;2023-04-25T07:19:17;6.53;;;5.03;;
3789;SDS011;1910;49.042;9.028;2023-04-25T07:21:43;7.60;;;4.90;;
3789;SDS011;1910;49.042;9.028;2023-04-25T07:24:09;8.10;;;4.43;;
3789;SDS011;1910;49.042;9.028;2023-04-25T07:26:35;8.57;;;5.70;;
3789;SDS011;1910;49.042;9.028;2023-04-25T07:29:01;14.90;;;5.23;;
3789;SDS011;1910;49.042;9.028;2023-04-25T07:31:26;8.70;;;5.13;;
3789;SDS011;1910;49.042;9.028;2023-04-25T07:33:52;7.60;;;6.10;;
3789;SDS011;1910;49.042;9.028;2023-04-25T07:36:18;6.30;;;4.87;;
3789;SDS011;1910;49.042;9.028;2023-04-25T07:38:43;8.33;;;5.90;;
3789;SDS011;1910;49.042;9.028;2023-04-25T07:41:09;6.90;;;5.00;;
3789;SDS011;1910;49.042;9.028;2023-04-25T07:43:35;7.80;;;5.90;;
3789;SDS011;1910;49.042;9.028;2023-04-25T07:46:01;11.63;;;5.93;;
3789;SDS011;1910;49.042;9.028;2023-04-25T07:48:27;11.43;;;7.63;;
3789;SDS011;1910;49.042;9.028;2023-04-25T07:50:53;9.03;;;7.10;;
3789;SDS011;1910;49.042;9.028;2023-04-25T07:53:18;8.90;;;7.10;;
3789;SDS011;1910;49.042;9.028;2023-04-25T07:55:44;9.57;;;7.07;;
3789;SDS011;1910;49.042;9.028;2023-04-25T07:58:11;10.40;;;6.80;;
3789;SDS011;1910;49.042;9.028;2023-04-25T08:00:36;7.82;;;7.03;;
3789;SDS011;1910;49.042;9.028;2023-04-25T08:03:02;10.95;;;8.15;;
3789;SDS011;1910;49.042;9.028;2023-04-25T08:05:28;9.37;;;6.80;;
3789;SDS011;1910;49.042;9.028;2023-04-25T08:07:54;10.23;;;8.23;;
3789;SDS011;1910;49.042;9.028;2023-04-25T08:10:21;12.10;;;8.52;;
3789;SDS011;1910;49.042;9.028;2023-04-25T08:12:48;7.68;;;6.88;;
3789;SDS011;1910;49.042;9.028;2023-04-25T08:15:13;9.70;;;6.37;;
3789;SDS011;1910;49.042;9.028;2023-04-25T08:17:39;9.13;;;6.87;;
3789;SDS011;1910;49.042;9.028;2023-04-25T08:20:05;8.95;;;7.43;;
3789;SDS011;1910;49.042;9.028;2023-04-25T08:22:31;9.88;;;6.95;;
3789;SDS011;1910;49.042;9.028;2023-04-25T08:24:57;14.23;;;7.63;;
3789;SDS011;1910;49.042;9.028;2023-04-25T08:27:23;10.30;;;7.07;;
3789;SDS011;1910;49.042;9.028;2023-04-25T08:29:49;8.90;;;7.20;;
3789;SDS011;1910;49.042;9.028;2023-04-25T08:32:16;8.55;;;6.55;;
3789;SDS011;1910;49.042;9.028;2023-04-25T08:34:41;10.37;;;6.97;;
3789;SDS011;1910;49.042;9.028;2023-04-25T08:37:09;9.43;;;7.10;;
3789;SDS011;1910;49.042;9.028;2023-04-25T08:39:38;13.38;;;7.90;;
3789;SDS011;1910;49.042;9.028;2023-04-25T08:42:05;10.93;;;8.10;;
3789;SDS011;1910;49.042;9.028;2023-04-25T08:44:34;12.95;;;7.97;;
3789;SDS011;1910;49.042;9.028;2023-04-25T08:47:01;14.57;;;8.57;;
3789;SDS011;1910;49.042;9.028;2023-04-25T08:49:29;9.10;;;7.47;;
3789;SDS011;1910;49.042;9.028;2023-04-25T08:51:56;10.60;;;8.20;;
3789;SDS011;1910;49.042;9.028;2023-04-25T08:54:30;13.80;;;8.43;;
3789;SDS011;1910;49.042;9.028;2023-04-25T08:56:57;11.13;;;7.82;;
3789;SDS011;1910;49.042;9.028;2023-04-25T08:59:26;13.60;;;7.95;;
3789;SDS011;1910;49.042;9.028;2023-04-25T09:01:52;17.48;;;8.57;;
3789;SDS011;1910;49.042;9.028;2023-04-25T09:04:18;15.90;;;10.03;;
3789;SDS011;1910;49.042;9.028;2023-04-25T09:06:45;13.05;;;10.52;;
3789;SDS011;1910;49.042;9.028;2023-04-25T09:09:11;18.98;;;10.35;;
3789;SDS011;1910;49.042;9.028;2023-04-25T09:11:37;18.40;;;10.93;;
3789;SDS011;1910;49.042;9.028;2023-04-25T09:14:10;15.50;;;10.43;;
3789;SDS011;1910;49.042;9.028;2023-04-25T09:17:21;17.23;;;10.63;;
3789;SDS011;1910;49.042;9.028;2023-04-25T09:19:36;16.48;;;11.05;;
3789;SDS011;1910;49.042;9.028;2023-04-25T09:22:05;17.80;;;11.00;;
3789;SDS011;1910;49.042;9.028;2023-04-25T09:27:07;18.98;;;11.30;;
3789;SDS011;1910;49.042;9.028;2023-04-25T09:29:38;19.45;;;12.07;;
3789;SDS011;1910;49.042;9.028;2023-04-25T09:34:46;8.65;;;5.47;;
3789;SDS011;1910;49.042;9.028;2023-04-25T09:37:17;4.57;;;2.90;;
3789;SDS011;1910;49.042;9.028;2023-04-25T09:39:48;5.20;;;2.92;;
3789;SDS011;1910;49.042;9.028;2023-04-25T09:42:15;6.65;;;3.60;;
3789;SDS011;1910;49.042;9.028;2023-04-25T09:44:45;6.47;;;2.72;;
3789;SDS011;1910;49.042;9.028;2023-04-25T09:47:11;3.92;;;2.70;;
3789;SDS011;1910;49.042;9.028;2023-04-25T09:49:39;4.28;;;2.47;;
3789;SDS011;1910;49.042;9.028;2023-04-25T09:52:07;4.35;;;2.97;;
3789;SDS011;1910;49.042;9.028;2023-04-25T09:54:32;8.00;;;3.80;;
3789;SDS011;1910;49.042;9.028;2023-04-25T09:56:58;4.50;;;3.33;;
3789;SDS011;1910;49.042;9.028;2023-04-25T09:59:46;5.65;;;3.97;;
3789;SDS011;1910;49.042;9.028;2023-04-25T10:02:14;6.72;;;3.95;;
3789;SDS011;1910;49.042;9.028;2023-04-25T10:04:41;4.18;;;3.10;;
3789;SDS011;1910;49.042;9.028;2023-04-25T10:07:09;3.85;;;3.03;;
3789;SDS011;1910;49.042;9.028;2023-04-25T10:09:37;3.45;;;2.45;;
3789;SDS011;1910;49.042;9.028;2023-04-25T10:12:06;4.82;;;3.63;;
3789;SDS011;1910;49.042;9.028;2023-04-25T10:14:32;4.78;;;2.90;;
3789;SDS011;1910;49.042;9.028;2023-04-25T10:16:59;7.28;;;4.88;;
3789;SDS011;1910;49.042;9.028;2023-04-25T10:19:25;11.85;;;5.93;;
3789;SDS011;1910;49.042;9.028;2023-04-25T10:21:54;10.70;;;7.28;;
3789;SDS011;1910;49.042;9.028;2023-04-25T10:24:29;10.07;;;6.43;;
3789;SDS011;1910;49.042;9.028;2023-04-25T10:26:55;5.10;;;3.80;;
3789;SDS011;1910;49.042;9.028;2023-04-25T10:29:22;5.57;;;3.47;;
3789;SDS011;1910;49.042;9.028;2023-04-25T10:31:49;4.45;;;3.70;;
3789;SDS011;1910;49.042;9.028;2023-04-25T10:34:15;5.77;;;4.53;;
3789;SDS011;1910;49.042;9.028;2023-04-25T10:36:42;9.73;;;5.50;;
3789;SDS011;1910;49.042;9.028;2023-04-25T10:39:07;10.73;;;6.77;;
3789;SDS011;1910;49.042;9.028;2023-04-25T10:41:46;10.68;;;5.72;;
3789;SDS011;1910;49.042;9.028;2023-04-25T10:44:16;12.85;;;7.00;;
3789;SDS011;1910;49.042;9.028;2023-04-25T10:46:42;10.37;;;7.13;;
3789;SDS011;1910;49.042;9.028;2023-04-25T10:49:10;8.70;;;6.70;;
3789;SDS011;1910;49.042;9.028;2023-04-25T10:51:58;13.07;;;8.23;;
3789;SDS011;1910;49.042;9.028;2023-04-25T10:54:42;10.93;;;7.45;;
3789;SDS011;1910;49.042;9.028;2023-04-25T11:00:14;10.35;;;8.35;;
3789;SDS011;1910;49.042;9.028;2023-04-25T11:05:08;14.00;;;9.30;;
3789;SDS011;1910;49.042;9.028;2023-04-25T11:07:37;12.02;;;8.45;;
3789;SDS011;1910;49.042;9.028;2023-04-25T11:10:15;10.73;;;7.90;;
3789;SDS011;1910;49.042;9.028;2023-04-25T11:12:41;13.20;;;8.03;;
3789;SDS011;1910;49.042;9.028;2023-04-25T11:15:07;16.37;;;8.73;;
3789;SDS011;1910;49.042;9.028;2023-04-25T11:17:33;14.73;;;8.00;;
3789;SDS011;1910;49.042;9.028;2023-04-25T11:20:00;15.88;;;9.20;;
3789;SDS011;1910;49.042;9.028;2023-04-25T11:22:26;17.92;;;10.02;;
3789;SDS011;1910;49.042;9.028;2023-04-25T11:24:53;16.45;;;8.80;;
3789;SDS011;1910;49.042;9.028;2023-04-25T11:27:19;22.55;;;10.38;;
3789;SDS011;1910;49.042;9.028;2023-04-25T11:29:46;18.38;;;9.60;;
3789;SDS011;1910;49.042;9.028;2023-04-25T11:32:14;23.33;;;9.95;;
3789;SDS011;1910;49.042;9.028;2023-04-25T11:34:42;15.52;;;8.95;;
3789;SDS011;1910;49.042;9.028;2023-04-25T11:37:09;17.13;;;9.63;;
3789;SDS011;1910;49.042;9.028;2023-04-25T11:39:37;18.65;;;9.25;;
3789;SDS011;1910;49.042;9.028;2023-04-25T11:42:03;19.65;;;9.80;;
3789;SDS011;1910;49.042;9.028;2023-04-25T11:44:30;26.42;;;8.95;;
3789;SDS011;1910;49.042;9.028;2023-04-25T11:46:56;15.52;;;9.40;;
3789;SDS011;1910;49.042;9.028;2023-04-25T11:49:22;19.10;;;8.43;;
3789;SDS011;1910;49.042;9.028;2023-04-25T11:51:49;18.85;;;9.30;;
3789;SDS011;1910;49.042;9.028;2023-04-25T11:54:15;14.97;;;9.10;;
3789;SDS011;1910;49.042;9.028;2023-04-25T11:56:41;13.45;;;8.95;;
3789;SDS011;1910;49.042;9.028;2023-04-25T11:59:08;17.00;;;8.90;;
3789;SDS011;1910;49.042;9.028;2023-04-25T12:01:35;26.23;;;10.57;;
3789;SDS011;1910;49.042;9.028;2023-04-25T12:06:39;14.20;;;9.20;;
3789;SDS011;1910;49.042;9.028;2023-04-25T12:09:10;10.35;;;7.43;;
3789;SDS011;1910;49.042;9.028;2023-04-25T12:11:44;11.40;;;6.93;;
3789;SDS011;1910;49.042;9.028;2023-04-25T12:14:11;22.50;;;8.93;;
3789;SDS011;1910;49.042;9.028;2023-04-25T12:16:45;15.48;;;8.45;;
3789;SDS011;1910;49.042;9.028;2023-04-25T12:19:18;21.17;;;10.50;;
3789;SDS011;1910;49.042;9.028;2023-04-25T12:21:44;21.15;;;10.23;;
3789;SDS011;1910;49.042;9.028;2023-04-25T12:26:47;18.40;;;9.07;;
3789;SDS011;1910;49.042;9.028;2023-04-25T12:29:28;17.23;;;9.32;;
3789;SDS011;1910;49.042;9.028;2023-04-25T12:31:54;18.10;;;11.27;;
3789;SDS011;1910;49.042;9.028;2023-04-25T12:34:21;15.50;;;10.02;;
3789;SDS011;1910;49.042;9.028;2023-04-25T12:36:47;16.95;;;11.75;;
3789;SDS011;1910;49.042;9.028;2023-04-25T12:39:17;21.50;;;11.35;;
3789;SDS011;1910;49.042;9.028;2023-04-25T12:41:49;16.90;;;8.50;;
3789;SDS011;1910;49.042;9.028;2023-04-25T12:44:17;15.85;;;9.38;;
3789;SDS011;1910;49.042;9.028;2023-04-25T12:46:42;14.00;;;9.87;;
3789;SDS011;1910;49.042;9.028;2023-04-25T12:49:08;16.60;;;8.90;;
3789;SDS011;1910;49.042;9.028;2023-04-25T12:51:35;15.23;;;9.00;;
3789;SDS011;1910;49.042;9.028;2023-04-25T12:54:01;11.65;;;7.65;;
3789;SDS011;1910;49.042;9.028;2023-04-25T12:56:28;14.25;;;9.00;;
3789;SDS011;1910;49.042;9.028;2023-04-25T12:58:54;15.20;;;10.18;;
3789;SDS011;1910;49.042;9.028;2023-04-25T13:01:21;14.90;;;8.02;;
3789;SDS011;1910;49.042;9.028;2023-04-25T13:03:47;11.35;;;7.18;;
3789;SDS011;1910;49.042;9.028;2023-04-25T13:06:13;19.23;;;8.75;;
3789;SDS011;1910;49.042;9.028;2023-04-25T13:08:39;15.85;;;8.95;;
3789;SDS011;1910;49.042;9.028;2023-04-25T13:11:06;11.07;;;7.20;;
3789;SDS011;1910;49.042;9.028;2023-04-25T13:13:32;11.50;;;7.53;;
3789;SDS011;1910;49.042;9.028;2023-04-25T13:15:59;14.90;;;7.80;;
3789;SDS011;1910;49.042;9.028;2023-04-25T13:18:29;11.07;;;6.75;;
3789;SDS011;1910;49.042;9.028;2023-04-25T13:20:55;10.95;;;7.53;;
3789;SDS011;1910;49.042;9.028;2023-04-25T13:23:21;16.37;;;8.93;;
3789;SDS011;1910;49.042;9.028;2023-04-25T13:25:47;15.68;;;9.32;;
3789;SDS011;1910;49.042;9.028;2023-04-25T13:28:13;14.33;;;8.07;;
3789;SDS011;1910;49.042;9.028;2023-04-25T13:30:39;13.32;;;7.68;;
3789;SDS011;1910;49.042;9.028;2023-04-25T13:33:05;15.10;;;7.67;;
3789;SDS011;1910;49.042;9.028;2023-04-25T13:35:31;14.60;;;7.73;;
3789;SDS011;1910;49.042;9.028;2023-04-25T13:37:58;20.02;;;8.82;;
3789;SDS011;1910;49.042;9.028;2023-04-25T13:40:24;13.90;;;8.30;;
3789;SDS011;1910;49.042;9.028;2023-04-25T13:42:51;10.98;;;6.82;;
3789;SDS011;1910;49.042;9.028;2023-04-25T13:45:17;12.90;;;7.47;;
3789;SDS011;1910;49.042;9.028;2023-04-25T13:47:43;13.73;;;7.63;;
3789;SDS011;1910;49.042;9.028;2023-04-25T13:50:09;17.77;;;9.00;;
3789;SDS011;1910;49.042;9.028;2023-04-25T13:52:35;14.30;;;8.23;;
3789;SDS011;1910;49.042;9.028;2023-04-25T13:55:01;23.27;;;9.27;;
3789;SDS011;1910;49.042;9.028;2023-04-25T13:57:28;12.93;;;8.60;;
3789;SDS011;1910;49.042;9.028;2023-04-25T13:59:57;13.60;;;8.27;;
3789;SDS011;1910;49.042;9.028;2023-04-25T14:02:23;14.70;;;8.07;;
3789;SDS011;1910;49.042;9.028;2023-04-25T14:04:48;18.23;;;8.67;;
3789;SDS011;1910;49.042;9.028;2023-04-25T14:07:14;11.87;;;7.00;;
3789;SDS011;1910;49.042;9.028;2023-04-25T14:09:43;19.52;;;8.05;;
3789;SDS011;1910;49.042;9.028;2023-04-25T14:12:08;12.45;;;7.13;;
3789;SDS011;1910;49.042;9.028;2023-04-25T14:14:34;11.13;;;7.10;;
3789;SDS011;1910;49.042;9.028;2023-04-25T14:17:00;15.80;;;8.53;;
3789;SDS011;1910;49.042;9.028;2023-04-25T14:19:26;12.00;;;7.70;;
3789;SDS011;1910;49.042;9.028;2023-04-25T14:21:53;12.18;;;7.70;;
3789;SDS011;1910;49.042;9.028;2023-04-25T14:24:19;11.40;;;7.27;;
3789;SDS011;1910;49.042;9.028;2023-04-25T14:26:45;14.38;;;6.97;;
3789;SDS011;1910;49.042;9.028;2023-04-25T14:29:11;10.73;;;7.17;;
3789;SDS011;1910;49.042;9.028;2023-04-25T14:31:37;12.90;;;7.13;;
3789;SDS011;1910;49.042;9.028;2023-04-25T14:34:03;11.45;;;7.20;;
3789;SDS011;1910;49.042;9.028;2023-04-25T14:36:31;12.10;;;7.88;;
3789;SDS011;1910;49.042;9.028;2023-04-25T14:38:57;13.73;;;8.73;;
3789;SDS011;1910;49.042;9.028;2023-04-25T14:41:24;14.15;;;8.77;;
3789;SDS011;1910;49.042;9.028;2023-04-25T14:43:50;16.05;;;8.80;;
3789;SDS011;1910;49.042;9.028;2023-04-25T14:46:15;13.60;;;7.00;;
3789;SDS011;1910;49.042;9.028;2023-04-25T14:48:41;24.63;;;8.00;;
3789;SDS011;1910;49.042;9.028;2023-04-25T14:51:07;13.85;;;8.75;;
3789;SDS011;1910;49.042;9.028;2023-04-25T14:53:33;13.53;;;8.43;;
3789;SDS011;1910;49.042;9.028;2023-04-25T14:55:59;14.00;;;7.55;;
3789;SDS011;1910;49.042;9.028;2023-04-25T14:58:26;14.10;;;7.32;;
3789;SDS011;1910;49.042;9.028;2023-04-25T15:00:52;14.13;;;8.60;;
3789;SDS011;1910;49.042;9.028;2023-04-25T15:03:18;11.25;;;8.00;;
3789;SDS011;1910;49.042;9.028;2023-04-25T15:05:44;10.33;;;6.90;;
3789;SDS011;1910;49.042;9.028;2023-04-25T15:08:09;14.53;;;8.03;;
3789;SDS011;1910;49.042;9.028;2023-04-25T15:10:35;15.50;;;7.37;;
3789;SDS011;1910;49.042;9.028;2023-04-25T15:13:02;9.05;;;6.10;;
3789;SDS011;1910;49.042;9.028;2023-04-25T15:15:28;10.05;;;7.70;;
3789;SDS011;1910;49.042;9.028;2023-04-25T15:17:54;11.07;;;6.63;;
3789;SDS011;1910;49.042;9.028;2023-04-25T15:20:21;15.18;;;7.88;;
3789;SDS011;1910;49.042;9.028;2023-04-25T15:22:47;11.15;;;7.28;;